Time;durP1;ratioP1;P1;durP2;ratioP2;P2;SDS_P1;SDS_P2;PMS_P1;PMS_P2;Temp;Humidity;BMP_temperature;BMP_pressure;BME280_temperature;BME280_humidity;BME280_pressure;Samples;Min_cycle;Max_cycle;Signal;HPM_P1;HPM_P2
2022/05/27 00:01:47;;;;;;;2.20;1.50;;;;;;;;;;5056757;28;24450;-45
2022/05/27 00:04:12;;;;;;;1.65;1.55;;;;;;;;;;5045920;28;24434;-45
2022/05/27 00:06:37;;;;;;;1.50;1.40;;;;;;;;;;5049010;28;24419;-45
2022/05/27 00:09:03;;;;;;;1.92;1.70;;;;;;;;;;5063848;28;24394;-45
2022/05/27 00:11:28;;;;;;;1.50;1.40;;;;;;;;;;5056812;28;24573;-45
2022/05/27 00:13:53;;;;;;;2.70;1.50;;;;;;;;;;5066254;28;24425;-44
2022/05/27 00:16:18;;;;;;;1.50;1.40;;;;;;;;;;5066200;28;24890;-44
2022/05/27 00:18:43;;;;;;;1.60;1.50;;;;;;;;;;5065279;28;25038;-44
2022/05/27 00:21:09;;;;;;;1.90;1.70;;;;;;;;;;5055379;28;24476;-43
2022/05/27 00:23:35;;;;;;;2.70;1.50;;;;;;;;;;5047587;28;24400;-43
2022/05/27 00:26:01;;;;;;;2.10;1.60;;;;;;;;;;5049323;28;24950;-44
2022/05/27 00:28:26;;;;;;;1.40;1.30;;;;;;;;;;5047741;28;24979;-44
2022/05/27 00:30:52;;;;;;;1.70;1.50;;;;;;;;;;5057156;28;24438;-44
2022/05/27 00:33:18;;;;;;;1.70;1.60;;;;;;;;;;5065830;28;24399;-43
2022/05/27 00:35:43;;;;;;;1.40;1.30;;;;;;;;;;5055819;28;24426;-44
2022/05/27 00:38:08;;;;;;;1.50;1.40;;;;;;;;;;5046006;28;24513;-44
2022/05/27 00:40:38;;;;;;;2.22;1.70;;;;;;;;;;5054229;28;24811;-44
2022/05/27 00:43:03;;;;;;;2.03;1.60;;;;;;;;;;5058630;28;24465;-44
2022/05/27 00:45:32;;;;;;;1.80;1.70;;;;;;;;;;5065034;28;24726;-45
2022/05/27 00:47:58;;;;;;;1.70;1.50;;;;;;;;;;5065624;28;24394;-44
2022/05/27 00:50:27;;;;;;;2.50;1.40;;;;;;;;;;5052630;28;24434;-44
2022/05/27 00:52:54;;;;;;;2.10;1.52;;;;;;;;;;5044016;28;24400;-44
2022/05/27 00:55:25;;;;;;;2.10;1.90;;;;;;;;;;5052681;28;24969;-44
2022/05/27 00:57:52;;;;;;;1.90;1.60;;;;;;;;;;5059929;28;24414;-44
2022/05/27 01:00:19;;;;;;;1.70;1.58;;;;;;;;;;5059099;28;24457;-44
2022/05/27 01:02:45;;;;;;;2.42;1.80;;;;;;;;;;5063317;28;24495;-44
2022/05/27 01:05:11;;;;;;;1.77;1.67;;;;;;;;;;5057824;28;24511;-44
2022/05/27 01:07:37;;;;;;;2.63;1.50;;;;;;;;;;5065191;28;25084;-44
2022/05/27 01:10:04;;;;;;;2.00;1.63;;;;;;;;;;5051713;28;24987;-44
2022/05/27 01:12:48;;;;;;;1.60;1.50;;;;;;;;;;5044877;28;24399;-44
2022/05/27 01:15:19;;;;;;;1.60;1.50;;;;;;;;;;5048349;28;24426;-44
2022/05/27 01:17:44;;;;;;;1.63;1.52;;;;;;;;;;5065031;28;24444;-44
2022/05/27 01:20:29;;;;;;;2.00;1.40;;;;;;;;;;5065541;28;24499;-44
2022/05/27 01:23:03;;;;;;;1.50;1.40;;;;;;;;;;5065100;28;24407;-45
2022/05/27 01:25:29;;;;;;;2.15;1.88;;;;;;;;;;5044884;28;24423;-44
2022/05/27 01:28:09;;;;;;;2.65;1.73;;;;;;;;;;5046221;28;24418;-44
2022/05/27 01:30:37;;;;;;;3.00;1.80;;;;;;;;;;5064937;28;24391;-44
2022/05/27 01:33:04;;;;;;;2.42;1.70;;;;;;;;;;5054920;28;24497;-44
2022/05/27 01:35:43;;;;;;;3.05;1.85;;;;;;;;;;5044029;28;24391;-44
2022/05/27 01:38:14;;;;;;;2.90;1.80;;;;;;;;;;5050685;28;24510;-44
2022/05/27 01:40:45;;;;;;;2.00;1.90;;;;;;;;;;5066321;28;24444;-44
2022/05/27 01:43:15;;;;;;;4.03;2.40;;;;;;;;;;5057482;28;24529;-44
2022/05/27 01:45:44;;;;;;;2.40;2.10;;;;;;;;;;5044725;28;24949;-44
2022/05/27 01:48:17;;;;;;;1.90;1.70;;;;;;;;;;5054788;28;24438;-44
2022/05/27 01:50:51;;;;;;;2.63;2.13;;;;;;;;;;5064564;28;24513;-45
2022/05/27 01:53:24;;;;;;;2.40;1.80;;;;;;;;;;5049724;28;25034;-45
2022/05/27 01:55:53;;;;;;;3.35;2.08;;;;;;;;;;5063025;28;24407;-44
2022/05/27 01:58:18;;;;;;;3.47;1.83;;;;;;;;;;5065181;28;24419;-45
2022/05/27 02:00:44;;;;;;;2.40;1.80;;;;;;;;;;5062977;28;24422;-45
2022/05/27 02:03:12;;;;;;;3.97;1.80;;;;;;;;;;5058001;28;24427;-44
2022/05/27 02:05:37;;;;;;;2.77;1.80;;;;;;;;;;5070759;28;24475;-45
2022/05/27 02:08:09;;;;;;;1.83;1.70;;;;;;;;;;5053878;28;24403;-44
2022/05/27 02:10:37;;;;;;;3.30;2.22;;;;;;;;;;5049855;28;24426;-44
2022/05/27 02:13:18;;;;;;;2.20;1.60;;;;;;;;;;5060710;28;24522;-44
2022/05/27 02:15:45;;;;;;;2.00;1.80;;;;;;;;;;5059503;28;24422;-45
2022/05/27 02:18:21;;;;;;;3.60;2.00;;;;;;;;;;5066882;28;24426;-44
2022/05/27 02:20:55;;;;;;;1.90;1.60;;;;;;;;;;5068942;28;24972;-44
2022/05/27 02:23:26;;;;;;;2.30;2.10;;;;;;;;;;5064540;28;24414;-45
2022/05/27 02:25:52;;;;;;;2.15;1.90;;;;;;;;;;5074037;28;24509;-44
2022/05/27 02:28:21;;;;;;;2.92;2.10;;;;;;;;;;5072390;28;24453;-44
2022/05/27 02:30:48;;;;;;;1.90;1.80;;;;;;;;;;5072935;28;25027;-44
2022/05/27 02:36:03;;;;;;;3.70;2.13;;;;;;;;;;5075151;28;24410;-44
2022/05/27 02:38:28;;;;;;;2.72;2.10;;;;;;;;;;5077174;28;24483;-44
2022/05/27 02:41:32;;;;;;;3.57;2.20;;;;;;;;;;5077780;28;25024;-45
2022/05/27 02:44:17;;;;;;;2.80;1.90;;;;;;;;;;4968619;28;24931;-44
2022/05/27 02:46:48;;;;;;;2.70;1.92;;;;;;;;;;4970878;28;24444;-44
2022/05/27 02:49:16;;;;;;;2.20;2.00;;;;;;;;;;5027259;28;24420;-44
2022/05/27 02:51:47;;;;;;;2.20;1.90;;;;;;;;;;5060851;28;24430;-44
2022/05/27 02:54:44;;;;;;;2.90;2.20;;;;;;;;;;5073133;28;24418;-44
2022/05/27 02:57:12;;;;;;;3.00;1.80;;;;;;;;;;5021078;28;25055;-44
2022/05/27 02:59:38;;;;;;;3.80;2.28;;;;;;;;;;5078702;28;24990;-45
2022/05/27 03:02:07;;;;;;;4.15;2.10;;;;;;;;;;5071973;28;24478;-44
2022/05/27 03:04:33;;;;;;;2.70;1.80;;;;;;;;;;5070288;28;24488;-44
2022/05/27 03:06:59;;;;;;;2.77;1.90;;;;;;;;;;5064275;28;24419;-44
2022/05/27 03:09:34;;;;;;;2.35;1.85;;;;;;;;;;5067099;28;24425;-44
2022/05/27 03:12:06;;;;;;;2.00;1.90;;;;;;;;;;5058525;28;24426;-44
2022/05/27 03:14:42;;;;;;;1.90;1.70;;;;;;;;;;5076865;28;25333;-44
2022/05/27 03:17:22;;;;;;;2.53;1.80;;;;;;;;;;5070507;28;24977;-44
2022/05/27 03:19:53;;;;;;;2.83;1.90;;;;;;;;;;5060096;28;24422;-45
2022/05/27 03:22:30;;;;;;;2.95;2.00;;;;;;;;;;5060045;28;24964;-44
2022/05/27 03:25:10;;;;;;;3.35;2.00;;;;;;;;;;5044035;28;24892;-44
2022/05/27 03:27:40;;;;;;;1.80;1.70;;;;;;;;;;5069143;28;24426;-44
2022/05/27 03:30:05;;;;;;;2.00;1.80;;;;;;;;;;5083143;28;25159;-44
2022/05/27 03:32:38;;;;;;;2.10;1.70;;;;;;;;;;5084051;28;24430;-44
2022/05/27 03:35:17;;;;;;;2.80;2.08;;;;;;;;;;5079936;28;24422;-44
2022/05/27 03:37:47;;;;;;;2.00;1.80;;;;;;;;;;5074753;28;24422;-44
2022/05/27 03:40:16;;;;;;;3.33;2.20;;;;;;;;;;5063185;28;24423;-44
2022/05/27 03:42:41;;;;;;;2.43;2.10;;;;;;;;;;5078791;28;24453;-44
2022/05/27 03:45:11;;;;;;;4.70;2.40;;;;;;;;;;5070888;28;24419;-44
2022/05/27 03:47:37;;;;;;;4.10;2.60;;;;;;;;;;5078184;28;24392;-44
2022/05/27 03:50:03;;;;;;;4.07;2.70;;;;;;;;;;5060469;28;24441;-44
2022/05/27 03:52:31;;;;;;;3.30;2.60;;;;;;;;;;5083081;28;24414;-44
2022/05/27 03:54:56;;;;;;;4.85;2.80;;;;;;;;;;5060570;28;24501;-44
2022/05/27 03:57:21;;;;;;;3.80;2.60;;;;;;;;;;5079966;28;24414;-44
2022/05/27 03:59:46;;;;;;;3.80;2.40;;;;;;;;;;5073190;28;24619;-43
2022/05/27 04:02:12;;;;;;;3.45;2.40;;;;;;;;;;5074576;28;24491;-45
2022/05/27 04:04:37;;;;;;;3.20;2.20;;;;;;;;;;5076389;28;24480;-44
2022/05/27 04:07:02;;;;;;;3.40;2.20;;;;;;;;;;5071785;28;24544;-44
2022/05/27 04:09:27;;;;;;;2.77;2.10;;;;;;;;;;5071440;28;24773;-43
2022/05/27 04:11:53;;;;;;;2.97;2.10;;;;;;;;;;5065757;28;25197;-43
2022/05/27 04:14:19;;;;;;;2.47;2.00;;;;;;;;;;5066361;28;24429;-44
2022/05/27 04:16:44;;;;;;;3.47;1.80;;;;;;;;;;5066139;28;24460;-44
2022/05/27 04:19:10;;;;;;;2.40;1.90;;;;;;;;;;5070814;28;25020;-44
2022/05/27 04:21:36;;;;;;;3.03;2.00;;;;;;;;;;5071879;28;24434;-44
2022/05/27 04:24:01;;;;;;;1.70;1.60;;;;;;;;;;5066395;28;24441;-44
2022/05/27 04:26:27;;;;;;;2.77;1.90;;;;;;;;;;5075741;28;24785;-44
2022/05/27 04:28:52;;;;;;;2.80;2.00;;;;;;;;;;5050848;28;24781;-44
2022/05/27 04:31:17;;;;;;;3.77;1.90;;;;;;;;;;5062337;28;25139;-44
2022/05/27 04:33:43;;;;;;;2.28;1.88;;;;;;;;;;5050902;28;24451;-44
2022/05/27 04:36:08;;;;;;;2.37;1.87;;;;;;;;;;5045911;28;24438;-44
2022/05/27 04:38:34;;;;;;;3.88;2.20;;;;;;;;;;5060122;28;24491;-44
2022/05/27 04:40:59;;;;;;;3.38;2.00;;;;;;;;;;5065288;28;24886;-45
2022/05/27 04:43:25;;;;;;;2.20;2.00;;;;;;;;;;5052140;28;24451;-44
2022/05/27 04:45:50;;;;;;;4.43;2.10;;;;;;;;;;5059671;28;24781;-44
2022/05/27 04:48:16;;;;;;;2.97;1.77;;;;;;;;;;5068757;28;24416;-45
2022/05/27 04:50:41;;;;;;;2.80;1.98;;;;;;;;;;5063367;28;24431;-44
2022/05/27 04:53:07;;;;;;;1.70;1.60;;;;;;;;;;5069861;28;24439;-44
2022/05/27 04:55:33;;;;;;;2.50;1.90;;;;;;;;;;5062367;28;24994;-44
2022/05/27 04:57:59;;;;;;;2.00;1.80;;;;;;;;;;5066493;28;24403;-44
2022/05/27 05:00:29;;;;;;;2.25;2.05;;;;;;;;;;5064386;28;24405;-44
2022/05/27 05:02:55;;;;;;;3.10;2.30;;;;;;;;;;5077583;28;24781;-45
2022/05/27 05:05:21;;;;;;;3.27;2.27;;;;;;;;;;5066809;28;24402;-45
2022/05/27 05:07:51;;;;;;;3.10;2.20;;;;;;;;;;5063101;28;24789;-45
2022/05/27 05:10:18;;;;;;;2.50;2.20;;;;;;;;;;5076010;28;25097;-44
2022/05/27 05:12:44;;;;;;;2.20;2.00;;;;;;;;;;5063460;28;24998;-44
2022/05/27 05:15:09;;;;;;;2.60;2.30;;;;;;;;;;5064790;28;24531;-43
2022/05/27 05:17:35;;;;;;;3.00;2.30;;;;;;;;;;5071836;28;24587;-45
2022/05/27 05:20:00;;;;;;;3.63;2.00;;;;;;;;;;5072701;28;24441;-44
2022/05/27 05:22:25;;;;;;;2.40;2.20;;;;;;;;;;5062774;28;25023;-44
2022/05/27 05:24:53;;;;;;;2.67;2.10;;;;;;;;;;5068962;28;24410;-44
2022/05/27 05:27:19;;;;;;;2.45;2.10;;;;;;;;;;5082133;28;24481;-44
2022/05/27 05:29:44;;;;;;;2.40;2.20;;;;;;;;;;5076930;28;24509;-45
2022/05/27 05:32:09;;;;;;;2.80;2.22;;;;;;;;;;5067421;28;24427;-44
2022/05/27 05:34:34;;;;;;;4.00;2.30;;;;;;;;;;5071624;28;24516;-44
2022/05/27 05:36:59;;;;;;;2.92;2.05;;;;;;;;;;5068115;28;24434;-44
2022/05/27 05:39:25;;;;;;;3.03;2.00;;;;;;;;;;5068034;28;24426;-44
2022/05/27 05:41:57;;;;;;;2.87;1.90;;;;;;;;;;5061299;28;24534;-44
2022/05/27 05:44:22;;;;;;;4.25;2.20;;;;;;;;;;5060114;28;25018;-44
2022/05/27 05:46:49;;;;;;;3.10;2.40;;;;;;;;;;5065372;28;24426;-45
2022/05/27 05:49:14;;;;;;;4.30;2.47;;;;;;;;;;5070666;28;24757;-45
2022/05/27 05:51:39;;;;;;;2.80;2.50;;;;;;;;;;5064790;28;24988;-44
2022/05/27 05:54:04;;;;;;;3.42;2.20;;;;;;;;;;5040991;28;24592;-44
2022/05/27 05:56:31;;;;;;;2.60;2.40;;;;;;;;;;5069141;28;24495;-45
2022/05/27 05:58:56;;;;;;;2.75;2.55;;;;;;;;;;5062558;28;24537;-44
2022/05/27 06:01:21;;;;;;;3.47;3.17;;;;;;;;;;5068275;28;24418;-44
2022/05/27 06:03:46;;;;;;;2.70;2.50;;;;;;;;;;5081369;28;24398;-44
2022/05/27 06:06:12;;;;;;;4.27;2.70;;;;;;;;;;5051379;28;24431;-44
2022/05/27 06:08:37;;;;;;;4.23;2.63;;;;;;;;;;5062022;28;24414;-44
2022/05/27 06:11:02;;;;;;;2.80;2.60;;;;;;;;;;5052311;28;25594;-44
2022/05/27 06:13:28;;;;;;;3.10;2.70;;;;;;;;;;5077447;28;24426;-44
2022/05/27 06:15:53;;;;;;;3.63;2.60;;;;;;;;;;5071771;28;24418;-44
2022/05/27 06:18:18;;;;;;;4.47;2.60;;;;;;;;;;5063664;28;24814;-45
2022/05/27 06:20:43;;;;;;;4.40;2.70;;;;;;;;;;5072438;28;24492;-44
2022/05/27 06:23:08;;;;;;;3.10;2.80;;;;;;;;;;5080874;28;24529;-44
2022/05/27 06:25:34;;;;;;;3.95;2.95;;;;;;;;;;5069511;28;24425;-44
2022/05/27 06:36:11;;;;;;;3.50;2.60;;;;;;;;;;5082145;28;24429;-43
2022/05/27 06:38:37;;;;;;;2.93;2.40;;;;;;;;;;5066915;28;24431;-44
2022/05/27 06:41:03;;;;;;;3.60;2.50;;;;;;;;;;5065628;28;24387;-44
2022/05/27 06:43:28;;;;;;;4.40;2.70;;;;;;;;;;5076539;28;24441;-43
2022/05/27 06:45:53;;;;;;;3.10;2.40;;;;;;;;;;5082274;28;24414;-44
2022/05/27 06:48:18;;;;;;;3.00;2.70;;;;;;;;;;5087774;28;24830;-44
2022/05/27 06:50:43;;;;;;;3.70;2.90;;;;;;;;;;5090579;28;24464;-44
2022/05/27 06:53:08;;;;;;;2.83;2.53;;;;;;;;;;5085952;28;24422;-44
2022/05/27 06:55:34;;;;;;;3.03;2.80;;;;;;;;;;5079068;28;24425;-44
2022/05/27 06:57:59;;;;;;;4.87;2.60;;;;;;;;;;5080561;28;24986;-44
2022/05/27 07:00:24;;;;;;;2.90;2.70;;;;;;;;;;5081738;28;24430;-44
2022/05/27 07:02:49;;;;;;;3.07;2.60;;;;;;;;;;5088814;28;24825;-44
2022/05/27 07:05:14;;;;;;;3.85;2.60;;;;;;;;;;5086820;28;24966;-44
2022/05/27 07:07:39;;;;;;;3.00;2.50;;;;;;;;;;5087496;28;24401;-44
2022/05/27 07:10:05;;;;;;;3.15;2.60;;;;;;;;;;5087987;28;24453;-44
2022/05/27 07:12:30;;;;;;;2.60;2.40;;;;;;;;;;5088470;28;24390;-44
2022/05/27 07:14:55;;;;;;;4.47;2.90;;;;;;;;;;5088660;28;24405;-44
2022/05/27 07:17:20;;;;;;;3.90;2.30;;;;;;;;;;5089100;28;24389;-45
2022/05/27 07:19:46;;;;;;;3.00;2.30;;;;;;;;;;5089015;28;24396;-44
2022/05/27 07:22:11;;;;;;;3.30;2.80;;;;;;;;;;5088651;28;24768;-44
2022/05/27 07:24:37;;;;;;;2.50;2.30;;;;;;;;;;5088843;28;24783;-44
2022/05/27 07:27:02;;;;;;;2.90;2.60;;;;;;;;;;5088251;28;24963;-45
2022/05/27 07:29:28;;;;;;;2.60;2.40;;;;;;;;;;5088853;28;24386;-44
2022/05/27 07:31:53;;;;;;;2.70;2.30;;;;;;;;;;5088782;28;24447;-44
2022/05/27 07:34:18;;;;;;;2.60;2.40;;;;;;;;;;5088756;28;24397;-44
2022/05/27 07:36:43;;;;;;;2.60;2.40;;;;;;;;;;5088446;28;24451;-44
2022/05/27 07:39:09;;;;;;;3.00;2.70;;;;;;;;;;5088628;28;24378;-45
2022/05/27 07:41:34;;;;;;;3.40;1.38;;;;;;;;;;5087588;28;24415;-44
2022/05/27 07:44:01;;;;;;;1.45;1.35;;;;;;;;;;5068122;28;24474;-45
2022/05/27 07:46:27;;;;;;;1.60;1.10;;;;;;;;;;5068083;28;24418;-43
2022/05/27 07:48:52;;;;;;;1.70;1.10;;;;;;;;;;5066324;28;24485;-45
2022/05/27 07:51:18;;;;;;;1.90;1.30;;;;;;;;;;5059280;28;25145;-44
2022/05/27 07:53:43;;;;;;;2.30;1.60;;;;;;;;;;5053212;28;24404;-46
2022/05/27 07:56:09;;;;;;;2.00;1.50;;;;;;;;;;5047892;28;24470;-44
2022/05/27 07:58:35;;;;;;;2.20;2.00;;;;;;;;;;5048119;28;24956;-44
2022/05/27 08:01:00;;;;;;;3.00;1.73;;;;;;;;;;5048194;28;24396;-44
2022/05/27 08:03:26;;;;;;;1.53;1.43;;;;;;;;;;5047372;28;24813;-44
2022/05/27 08:05:51;;;;;;;2.00;1.90;;;;;;;;;;5047751;28;24438;-44
2022/05/27 08:08:18;;;;;;;2.50;1.83;;;;;;;;;;5047586;28;24461;-44
2022/05/27 08:10:43;;;;;;;2.00;1.90;;;;;;;;;;5047853;28;25236;-44
2022/05/27 08:13:08;;;;;;;1.90;1.80;;;;;;;;;;5047298;28;24394;-45
2022/05/27 08:15:34;;;;;;;2.10;1.90;;;;;;;;;;5047797;28;24395;-44
2022/05/27 08:17:59;;;;;;;1.85;1.75;;;;;;;;;;5047728;28;24391;-44
2022/05/27 08:20:26;;;;;;;2.30;2.10;;;;;;;;;;5047341;28;24529;-45
2022/05/27 08:22:53;;;;;;;1.65;1.55;;;;;;;;;;5047057;28;24410;-44
2022/05/27 08:25:19;;;;;;;2.20;2.00;;;;;;;;;;5047670;28;24475;-44
2022/05/27 08:27:44;;;;;;;1.80;1.70;;;;;;;;;;5047658;28;25046;-44
2022/05/27 08:30:10;;;;;;;2.25;2.05;;;;;;;;;;5047633;28;24395;-44
2022/05/27 08:32:36;;;;;;;2.20;2.00;;;;;;;;;;5047288;28;24394;-45
2022/05/27 08:38:01;;;;;;;3.83;1.95;;;;;;;;;;5047333;28;24379;-44
2022/05/27 08:40:32;;;;;;;1.83;1.73;;;;;;;;;;5047274;28;24754;-44
2022/05/27 08:43:02;;;;;;;2.10;1.70;;;;;;;;;;5046379;28;25053;-44
2022/05/27 08:45:32;;;;;;;1.98;1.77;;;;;;;;;;5045500;28;24403;-45
2022/05/27 08:48:00;;;;;;;1.85;1.70;;;;;;;;;;5063313;28;25110;-44
2022/05/27 08:50:32;;;;;;;1.70;1.60;;;;;;;;;;5067212;28;24417;-45
2022/05/27 08:52:59;;;;;;;1.98;1.60;;;;;;;;;;5066772;28;24403;-45
2022/05/27 09:01:17;;;;;;;1.57;1.47;;;;;;;;;;4965953;28;24447;-43
2022/05/27 09:03:46;;;;;;;2.65;1.77;;;;;;;;;;5027323;28;24969;-43
2022/05/27 09:06:13;;;;;;;1.50;1.40;;;;;;;;;;5046740;28;24478;-44
2022/05/27 09:08:38;;;;;;;1.58;1.40;;;;;;;;;;5063804;28;24457;-44
2022/05/27 09:11:28;;;;;;;1.70;1.60;;;;;;;;;;5066685;28;24819;-44
2022/05/27 09:14:01;;;;;;;1.80;1.60;;;;;;;;;;5044763;28;24399;-44
2022/05/27 09:16:35;;;;;;;1.60;1.50;;;;;;;;;;5046160;28;24394;-45
2022/05/27 09:19:15;;;;;;;2.10;1.40;;;;;;;;;;5045778;28;24383;-45
2022/05/27 09:21:52;;;;;;;2.13;1.60;;;;;;;;;;5050188;28;24768;-45
2022/05/27 09:24:17;;;;;;;1.90;1.70;;;;;;;;;;5062743;28;25014;-44
2022/05/27 09:26:45;;;;;;;2.88;2.20;;;;;;;;;;5065455;28;24423;-44
2022/05/27 09:29:27;;;;;;;3.42;2.80;;;;;;;;;;5064644;28;24387;-44
2022/05/27 09:32:04;;;;;;;3.70;2.72;;;;;;;;;;5065024;28;24423;-44
2022/05/27 09:34:31;;;;;;;2.90;2.60;;;;;;;;;;5063931;28;24394;-44
2022/05/27 09:36:59;;;;;;;2.87;2.60;;;;;;;;;;5064953;28;24423;-44
2022/05/27 09:39:24;;;;;;;3.42;2.00;;;;;;;;;;5064871;28;24431;-44
2022/05/27 09:42:02;;;;;;;2.67;1.92;;;;;;;;;;5064797;28;24516;-44
2022/05/27 09:44:49;;;;;;;3.30;2.20;;;;;;;;;;5064805;28;24382;-44
2022/05/27 09:47:15;;;;;;;1.90;1.80;;;;;;;;;;5061250;28;24453;-45
2022/05/27 09:49:40;;;;;;;1.75;1.60;;;;;;;;;;5067382;28;24943;-44
2022/05/27 09:52:06;;;;;;;1.80;1.70;;;;;;;;;;5066830;28;24427;-44
2022/05/27 09:54:31;;;;;;;2.47;1.90;;;;;;;;;;5070179;28;24629;-44
2022/05/27 09:57:02;;;;;;;2.70;2.00;;;;;;;;;;5067329;28;24499;-44
2022/05/27 09:59:41;;;;;;;2.00;1.80;;;;;;;;;;5070329;28;24842;-45
2022/05/27 10:02:14;;;;;;;2.58;2.00;;;;;;;;;;5067064;28;25045;-45
2022/05/27 10:04:53;;;;;;;2.10;1.90;;;;;;;;;;5069178;28;24498;-45
2022/05/27 10:07:25;;;;;;;3.28;2.10;;;;;;;;;;5048288;28;24479;-45
2022/05/27 10:09:50;;;;;;;2.28;2.10;;;;;;;;;;5049773;28;24408;-45
2022/05/27 10:12:27;;;;;;;4.00;2.30;;;;;;;;;;5049675;28;24431;-45
2022/05/27 10:14:52;;;;;;;3.10;2.50;;;;;;;;;;5050054;28;24407;-45
2022/05/27 10:17:27;;;;;;;2.55;2.30;;;;;;;;;;5049729;28;24404;-44
2022/05/27 10:20:11;;;;;;;2.45;2.25;;;;;;;;;;5050074;28;24410;-45
2022/05/27 10:22:37;;;;;;;2.85;2.55;;;;;;;;;;5049805;28;24506;-44
2022/05/27 10:25:04;;;;;;;2.20;2.00;;;;;;;;;;5047551;28;24498;-44
2022/05/27 10:27:34;;;;;;;2.65;2.33;;;;;;;;;;5049339;28;24446;-45
2022/05/27 10:30:01;;;;;;;2.70;2.50;;;;;;;;;;5049558;28;24486;-46
2022/05/27 10:32:37;;;;;;;3.60;2.33;;;;;;;;;;5049766;28;24452;-45
2022/05/27 10:35:06;;;;;;;2.72;2.53;;;;;;;;;;5049039;28;25003;-44
2022/05/27 10:37:34;;;;;;;2.60;2.40;;;;;;;;;;5049672;28;25200;-44
2022/05/27 10:40:18;;;;;;;2.40;2.20;;;;;;;;;;5049452;28;24399;-44
2022/05/27 10:42:48;;;;;;;2.97;2.30;;;;;;;;;;5049164;28;24945;-47
2022/05/27 10:45:31;;;;;;;3.63;2.20;;;;;;;;;;5058018;28;24407;-44
2022/05/27 10:47:56;;;;;;;3.25;2.40;;;;;;;;;;5069608;28;24959;-44
2022/05/27 10:50:25;;;;;;;2.13;1.90;;;;;;;;;;5069138;28;24976;-44
2022/05/27 10:52:59;;;;;;;2.80;2.30;;;;;;;;;;5069067;28;24468;-44
2022/05/27 10:55:34;;;;;;;2.45;2.25;;;;;;;;;;5068852;28;24482;-44
2022/05/27 11:04:09;;;;;;;2.90;2.60;;;;;;;;;;5069006;28;24382;-44
2022/05/27 11:06:43;;;;;;;2.75;2.53;;;;;;;;;;5069134;28;24390;-44
2022/05/27 11:09:08;;;;;;;2.60;2.40;;;;;;;;;;5068571;28;24438;-44
2022/05/27 11:11:38;;;;;;;2.90;2.65;;;;;;;;;;5068829;28;24714;-47
2022/05/27 11:17:16;;;;;;;3.00;2.30;;;;;;;;;;5069223;28;24401;-45
2022/05/27 11:19:41;;;;;;;2.65;2.45;;;;;;;;;;5069101;28;24383;-45
2022/05/27 11:22:26;;;;;;;2.95;2.75;;;;;;;;;;5068337;28;24414;-44
2022/05/27 11:25:00;;;;;;;2.40;2.20;;;;;;;;;;5068194;28;24399;-45
2022/05/27 11:27:43;;;;;;;2.90;2.50;;;;;;;;;;5068482;28;24390;-45
2022/05/27 11:30:18;;;;;;;2.30;2.10;;;;;;;;;;5068322;28;24399;-43
2022/05/27 11:32:46;;;;;;;3.33;2.33;;;;;;;;;;5068434;28;24999;-43
2022/05/27 11:35:27;;;;;;;3.95;2.38;;;;;;;;;;5067979;28;24753;-44
2022/05/27 11:38:11;;;;;;;2.40;2.20;;;;;;;;;;5068391;28;24382;-44
2022/05/27 11:40:39;;;;;;;2.40;2.20;;;;;;;;;;5068383;28;24800;-44
2022/05/27 11:43:15;;;;;;;2.10;1.90;;;;;;;;;;5081136;28;25059;-44
2022/05/27 11:45:51;;;;;;;2.00;1.90;;;;;;;;;;5075946;28;24402;-43
2022/05/27 11:48:29;;;;;;;3.60;1.77;;;;;;;;;;5068128;28;24936;-45
2022/05/27 11:51:05;;;;;;;2.63;1.90;;;;;;;;;;5067941;28;24406;-45
2022/05/27 11:53:49;;;;;;;1.80;1.70;;;;;;;;;;5067977;28;24428;-44
2022/05/27 11:56:30;;;;;;;2.03;1.83;;;;;;;;;;5068040;28;24532;-44
2022/05/27 11:58:58;;;;;;;2.00;1.60;;;;;;;;;;5067996;28;25059;-45
2022/05/27 12:01:32;;;;;;;2.97;2.30;;;;;;;;;;5067578;28;24963;-45
2022/05/27 12:04:15;;;;;;;1.97;1.87;;;;;;;;;;5067780;28;24427;-45
2022/05/27 12:06:46;;;;;;;2.17;1.98;;;;;;;;;;5062313;28;24955;-45
2022/05/27 12:09:27;;;;;;;2.40;2.20;;;;;;;;;;5065933;28;24398;-45
2022/05/27 12:11:55;;;;;;;2.25;2.13;;;;;;;;;;5066212;28;25126;-45
2022/05/27 12:14:38;;;;;;;2.57;2.37;;;;;;;;;;5064853;28;24978;-45
2022/05/27 12:17:05;;;;;;;2.33;2.13;;;;;;;;;;5046329;28;24524;-45
2022/05/27 12:19:35;;;;;;;2.30;2.10;;;;;;;;;;5048392;28;24407;-45
2022/05/27 12:22:08;;;;;;;2.75;2.50;;;;;;;;;;5065448;28;24417;-45
2022/05/27 12:24:54;;;;;;;1.90;1.80;;;;;;;;;;5066245;28;24798;-45
2022/05/27 12:27:19;;;;;;;2.20;2.10;;;;;;;;;;5065857;28;24390;-45
2022/05/27 12:29:47;;;;;;;2.73;2.30;;;;;;;;;;5059796;28;24979;-45
2022/05/27 12:32:13;;;;;;;2.13;2.00;;;;;;;;;;5045329;28;24391;-45
2022/05/27 12:34:42;;;;;;;3.05;2.30;;;;;;;;;;5053356;28;24437;-45
2022/05/27 12:37:14;;;;;;;2.70;2.50;;;;;;;;;;5065730;28;24437;-45
2022/05/27 12:39:41;;;;;;;2.85;2.55;;;;;;;;;;5065626;28;24450;-45
2022/05/27 12:42:06;;;;;;;2.60;2.30;;;;;;;;;;5067103;28;24450;-45
2022/05/27 12:44:31;;;;;;;2.57;2.33;;;;;;;;;;5065209;28;24425;-44
2022/05/27 12:47:01;;;;;;;3.50;2.60;;;;;;;;;;5065403;28;24775;-45
2022/05/27 12:49:26;;;;;;;2.60;2.38;;;;;;;;;;5064822;28;24425;-45
2022/05/27 12:51:52;;;;;;;2.90;2.33;;;;;;;;;;5065742;28;24490;-45
2022/05/27 12:54:35;;;;;;;3.03;2.30;;;;;;;;;;5065300;28;24980;-44
2022/05/27 13:03:03;;;;;;;2.30;2.10;;;;;;;;;;5065315;28;24417;-45
2022/05/27 13:05:48;;;;;;;2.10;1.90;;;;;;;;;;5066433;28;24386;-51
2022/05/27 13:08:20;;;;;;;2.95;1.77;;;;;;;;;;5064260;28;24397;-45
2022/05/27 13:10:47;;;;;;;2.22;2.00;;;;;;;;;;5066658;28;24482;-44
2022/05/27 13:13:13;;;;;;;1.95;1.80;;;;;;;;;;5066310;28;24448;-45
2022/05/27 13:15:53;;;;;;;2.38;2.08;;;;;;;;;;5066413;28;24394;-45
2022/05/27 13:18:25;;;;;;;2.00;1.90;;;;;;;;;;5066553;28;24441;-45
2022/05/27 13:20:53;;;;;;;2.10;1.90;;;;;;;;;;5066539;28;24502;-45
2022/05/27 13:23:21;;;;;;;2.10;1.90;;;;;;;;;;5066507;28;24502;-45
2022/05/27 13:25:57;;;;;;;2.05;1.80;;;;;;;;;;5065699;28;24950;-45
2022/05/27 13:28:27;;;;;;;2.80;2.00;;;;;;;;;;5066164;28;24387;-45
2022/05/27 13:31:02;;;;;;;1.92;1.70;;;;;;;;;;5066460;28;24752;-45
2022/05/27 13:33:54;;;;;;;2.10;1.83;;;;;;;;;;5066208;28;24486;-45
2022/05/27 13:36:21;;;;;;;2.00;1.70;;;;;;;;;;5062145;28;25017;-45
2022/05/27 13:38:51;;;;;;;2.13;1.92;;;;;;;;;;5066478;28;24464;-45
2022/05/27 13:41:17;;;;;;;3.03;2.43;;;;;;;;;;5066108;28;24445;-45
2022/05/27 13:43:44;;;;;;;2.72;2.10;;;;;;;;;;5065655;28;25039;-45
2022/05/27 13:46:14;;;;;;;2.35;2.15;;;;;;;;;;5065867;28;24751;-45
2022/05/27 13:48:43;;;;;;;2.20;1.85;;;;;;;;;;5066163;28;24765;-45
2022/05/27 13:51:08;;;;;;;2.50;2.30;;;;;;;;;;5066347;28;24383;-45
2022/05/27 13:53:35;;;;;;;2.20;1.90;;;;;;;;;;5066122;28;24744;-46
2022/05/27 13:56:10;;;;;;;2.60;1.90;;;;;;;;;;5065921;28;24456;-44
2022/05/27 13:58:36;;;;;;;2.30;1.90;;;;;;;;;;5066165;28;24488;-44
2022/05/27 14:01:04;;;;;;;3.67;2.40;;;;;;;;;;5066184;28;24474;-45
2022/05/27 14:03:44;;;;;;;2.92;2.20;;;;;;;;;;5065706;28;25029;-44
2022/05/27 14:06:11;;;;;;;3.90;2.60;;;;;;;;;;5065857;28;24394;-45
2022/05/27 14:08:38;;;;;;;2.30;2.10;;;;;;;;;;5065943;28;24382;-45
2022/05/27 14:11:13;;;;;;;3.00;2.10;;;;;;;;;;5066212;28;24375;-45
2022/05/27 14:13:38;;;;;;;2.28;2.08;;;;;;;;;;5065766;28;24848;-44
2022/05/27 14:16:08;;;;;;;3.25;2.10;;;;;;;;;;5065621;28;24998;-45
2022/05/27 14:18:34;;;;;;;2.03;1.83;;;;;;;;;;5066041;28;25011;-45
2022/05/27 14:23:52;;;;;;;4.40;2.03;;;;;;;;;;5066117;28;24884;-48
2022/05/27 14:26:17;;;;;;;3.33;1.70;;;;;;;;;;5065754;28;24929;-45
2022/05/27 14:28:47;;;;;;;2.50;1.90;;;;;;;;;;5065847;28;24387;-45
2022/05/27 14:31:18;;;;;;;2.42;2.10;;;;;;;;;;5065691;28;24405;-45
2022/05/27 14:33:51;;;;;;;2.10;1.60;;;;;;;;;;5065348;28;24520;-45
2022/05/27 14:36:17;;;;;;;2.50;2.10;;;;;;;;;;5065262;28;24404;-45
2022/05/27 14:38:43;;;;;;;1.70;1.60;;;;;;;;;;5069534;28;25364;-45
2022/05/27 14:41:11;;;;;;;4.40;1.98;;;;;;;;;;5069523;28;24452;-45
2022/05/27 14:43:39;;;;;;;2.08;1.83;;;;;;;;;;5076558;28;24553;-45
2022/05/27 14:46:11;;;;;;;2.30;2.13;;;;;;;;;;5069106;28;25000;-45
2022/05/27 14:48:37;;;;;;;3.28;1.90;;;;;;;;;;5069395;28;24536;-45
2022/05/27 14:51:21;;;;;;;3.20;2.10;;;;;;;;;;5069320;28;24765;-45
2022/05/27 14:53:47;;;;;;;2.57;1.93;;;;;;;;;;5068877;28;24387;-45
2022/05/27 14:56:18;;;;;;;2.92;2.00;;;;;;;;;;5068925;28;24486;-45
2022/05/27 14:58:44;;;;;;;3.10;2.00;;;;;;;;;;5068895;28;24539;-45
2022/05/27 15:01:12;;;;;;;3.10;2.17;;;;;;;;;;5068962;28;24437;-46
2022/05/27 15:03:39;;;;;;;2.67;2.10;;;;;;;;;;5064917;28;24967;-45
2022/05/27 15:06:07;;;;;;;3.67;2.10;;;;;;;;;;5067266;28;24406;-45
2022/05/27 15:08:33;;;;;;;2.78;2.00;;;;;;;;;;5067466;28;24589;-45
2022/05/27 15:11:12;;;;;;;1.95;1.80;;;;;;;;;;5066864;28;25007;-45
2022/05/27 15:13:46;;;;;;;2.90;2.10;;;;;;;;;;5067609;28;24423;-44
2022/05/27 15:16:13;;;;;;;3.00;2.15;;;;;;;;;;5066861;28;24504;-44
2022/05/27 15:18:46;;;;;;;2.00;1.90;;;;;;;;;;5067587;28;24506;-45
2022/05/27 15:21:15;;;;;;;2.50;2.10;;;;;;;;;;5066678;28;24747;-44
2022/05/27 15:23:47;;;;;;;2.58;2.00;;;;;;;;;;5068488;28;24494;-45
2022/05/27 15:34:33;;;;;;;2.80;1.80;;;;;;;;;;5068364;28;24377;-45
2022/05/27 15:36:58;;;;;;;2.42;2.08;;;;;;;;;;5068226;28;24458;-45
2022/05/27 15:39:24;;;;;;;3.50;2.08;;;;;;;;;;5068374;28;24474;-45
2022/05/27 15:41:49;;;;;;;4.22;2.10;;;;;;;;;;5067994;28;24477;-45